createdAt,value
2023-04-09T00:01:04.198Z,100752.44
2023-04-09T00:03:30.914Z,100743.00
2023-04-09T00:05:57.593Z,100744.59
2023-04-09T00:08:24.399Z,100751.63
2023-04-09T00:10:54.164Z,100750.84
2023-04-09T00:13:35.592Z,100750.94
2023-04-09T00:16:06.038Z,100744.97
2023-04-09T00:18:32.665Z,100755.41
2023-04-09T00:20:59.319Z,100746.84
2023-04-09T00:23:25.949Z,100746.88
2023-04-09T00:25:52.654Z,100742.50
2023-04-09T00:28:19.393Z,100748.56
2023-04-09T00:30:46.053Z,100745.91
2023-04-09T00:33:12.810Z,100739.91
2023-04-09T00:35:39.507Z,100740.88
2023-04-09T00:38:06.248Z,100745.88
2023-04-09T00:40:33.006Z,100741.41
2023-04-09T00:42:59.684Z,100736.34
2023-04-09T00:45:26.426Z,100739.75
2023-04-09T00:47:53.686Z,100736.22
2023-04-09T00:50:21.434Z,100739.69
2023-04-09T00:52:48.204Z,100742.22
2023-04-09T00:55:15.286Z,100740.50
2023-04-09T00:57:42.250Z,100737.75
2023-04-09T01:00:09.421Z,100742.00
2023-04-09T01:02:36.364Z,100745.47
2023-04-09T01:05:03.826Z,100748.91
2023-04-09T01:08:08.599Z,100734.47
2023-04-09T01:10:38.661Z,100739.81
2023-04-09T01:13:28.836Z,100738.03
2023-04-09T01:15:58.562Z,100736.88
2023-04-09T01:18:32.077Z,100740.09
2023-04-09T01:21:18.240Z,100733.19
2023-04-09T01:24:13.737Z,100742.63
2023-04-09T01:26:58.707Z,100739.09
2023-04-09T01:29:26.271Z,100736.59
2023-04-09T01:31:54.329Z,100741.00
2023-04-09T01:34:22.346Z,100741.03
2023-04-09T01:36:58.277Z,100743.88
2023-04-09T01:39:25.616Z,100747.25
2023-04-09T01:41:53.197Z,100746.44
2023-04-09T01:44:20.868Z,100740.38
2023-04-09T01:46:47.744Z,100736.06
2023-04-09T01:49:15.592Z,100741.28
2023-04-09T01:51:42.617Z,100738.75
2023-04-09T01:54:10.005Z,100738.69
2023-04-09T01:56:47.639Z,100735.16
2023-04-09T01:59:15.490Z,100743.78
2023-04-09T02:01:55.193Z,100743.56
2023-04-09T02:04:27.193Z,100748.91
2023-04-09T02:07:19.616Z,100743.56
2023-04-09T02:09:48.093Z,100748.88
2023-04-09T02:12:18.002Z,100742.84
2023-04-09T02:14:47.023Z,100745.47
2023-04-09T02:17:13.704Z,100746.25
2023-04-09T02:19:45.878Z,100736.66
2023-04-09T02:22:13.109Z,100740.19
2023-04-09T02:24:39.898Z,100733.22
2023-04-09T02:27:07.280Z,100728.91
2023-04-09T02:29:34.063Z,100734.00
2023-04-09T02:32:00.987Z,100741.66
2023-04-09T02:34:27.897Z,100734.03
2023-04-09T02:36:54.671Z,100733.16
2023-04-09T02:39:21.419Z,100730.63
2023-04-09T02:41:48.095Z,100729.66
2023-04-09T02:44:14.739Z,100729.66
2023-04-09T02:46:41.679Z,100725.19
2023-04-09T02:49:08.558Z,100738.09
2023-04-09T02:51:35.949Z,100733.72
2023-04-09T02:54:03.473Z,100729.38
2023-04-09T02:56:30.097Z,100731.13
2023-04-09T02:58:56.738Z,100732.91
2023-04-09T03:01:23.483Z,100725.34
2023-04-09T03:03:50.530Z,100727.16
2023-04-09T03:06:17.627Z,100734.09
2023-04-09T03:08:44.370Z,100734.88
2023-04-09T03:11:11.024Z,100737.38
2023-04-09T03:13:37.907Z,100729.63
2023-04-09T03:16:05.187Z,100738.31
2023-04-09T03:18:31.776Z,100728.81
2023-04-09T03:20:58.386Z,100728.88
2023-04-09T03:23:25.001Z,100733.38
2023-04-09T03:26:03.674Z,100736.09
2023-04-09T03:28:30.826Z,100733.56
2023-04-09T03:30:57.919Z,100737.63
2023-04-09T03:33:24.781Z,100734.78
2023-04-09T03:35:51.895Z,100737.47
2023-04-09T03:38:18.581Z,100742.53
2023-04-09T03:40:45.264Z,100736.47
2023-04-09T03:43:12.033Z,100739.81
2023-04-09T03:45:38.653Z,100730.50
2023-04-09T03:48:05.463Z,100732.56
2023-04-09T03:50:32.103Z,100730.91
2023-04-09T03:52:58.854Z,100736.78
2023-04-09T03:55:25.443Z,100734.88
2023-04-09T03:57:52.032Z,100735.84
2023-04-09T04:00:20.005Z,100739.22
2023-04-09T04:02:46.771Z,100737.31
2023-04-09T04:05:13.676Z,100744.25
2023-04-09T04:07:40.300Z,100744.97
2023-04-09T04:10:07.508Z,100745.88
2023-04-09T04:12:34.161Z,100740.97
2023-04-09T04:15:01.610Z,100746.31
2023-04-09T04:17:28.288Z,100737.44
2023-04-09T04:19:55.399Z,100748.53
2023-04-09T04:22:23.311Z,100760.81
2023-04-09T04:24:50.850Z,100759.09
2023-04-09T04:27:17.457Z,100753.13
2023-04-09T04:29:44.092Z,100757.53
2023-04-09T04:32:10.828Z,100763.41
2023-04-09T04:34:37.420Z,100758.28
2023-04-09T04:37:04.236Z,100759.25
2023-04-09T04:39:31.379Z,100757.44
2023-04-09T04:41:58.005Z,100762.34
2023-04-09T04:44:24.630Z,100765.19
2023-04-09T04:46:51.374Z,100764.31
2023-04-09T04:49:18.041Z,100760.84
2023-04-09T04:51:44.776Z,100765.88
2023-04-09T04:54:11.468Z,100770.38
2023-04-09T04:56:38.137Z,100770.34
2023-04-09T04:59:04.840Z,100768.44
2023-04-09T05:01:31.615Z,100767.44
2023-04-09T05:03:58.415Z,100767.59
2023-04-09T05:06:25.056Z,100767.69
2023-04-09T05:08:52.016Z,100770.97
2023-04-09T05:11:19.028Z,100778.19
2023-04-09T05:13:45.640Z,100782.00
2023-04-09T05:16:19.997Z,100782.03
2023-04-09T05:18:47.245Z,100778.44
2023-04-09T05:21:14.001Z,100782.47
2023-04-09T05:23:40.606Z,100777.59
2023-04-09T05:26:07.279Z,100786.19
2023-04-09T05:28:34.041Z,100782.63
2023-04-09T05:31:00.705Z,100789.69
2023-04-09T05:33:27.451Z,100792.31
2023-04-09T05:35:54.156Z,100788.00
2023-04-09T05:38:20.841Z,100792.31
2023-04-09T05:40:47.483Z,100775.88
2023-04-09T05:43:14.159Z,100788.19
2023-04-09T05:45:40.902Z,100796.81
2023-04-09T05:48:07.580Z,100796.84
2023-04-09T05:50:40.853Z,100793.19
2023-04-09T05:53:19.009Z,100804.63
2023-04-09T05:55:46.210Z,100798.59
2023-04-09T05:58:13.395Z,100796.97
2023-04-09T06:00:40.144Z,100792.31
2023-04-09T06:03:06.887Z,100800.25
2023-04-09T06:05:33.633Z,100808.88
2023-04-09T06:08:00.380Z,100811.47
2023-04-09T06:10:27.455Z,100803.81
2023-04-09T06:12:54.193Z,100810.88
2023-04-09T06:15:20.884Z,100805.59
2023-04-09T06:17:47.677Z,100808.06
2023-04-09T06:20:14.362Z,100810.00
2023-04-09T06:22:40.960Z,100808.22
2023-04-09T06:25:08.091Z,100805.59
2023-04-09T06:27:34.774Z,100810.97
2023-04-09T06:30:01.430Z,100804.97
2023-04-09T06:32:28.094Z,100812.88
2023-04-09T06:34:54.817Z,100809.59
2023-04-09T06:37:21.448Z,100814.75
2023-04-09T06:40:00.294Z,100806.84
2023-04-09T06:42:27.399Z,100812.91
2023-04-09T06:44:54.052Z,100808.63
2023-04-09T06:47:20.630Z,100804.16
2023-04-09T06:49:47.274Z,100812.84
2023-04-09T06:52:13.914Z,100819.06
2023-04-09T06:54:40.560Z,100818.88
2023-04-09T06:57:07.383Z,100825.91
2023-04-09T06:59:34.042Z,100815.66
2023-04-09T07:02:01.309Z,100821.84
2023-04-09T07:06:54.605Z,100828.72
2023-04-09T07:09:21.313Z,100826.97
2023-04-09T07:11:47.975Z,100834.91
2023-04-09T07:14:14.720Z,100836.84
2023-04-09T07:16:41.411Z,100841.84
2023-04-09T07:19:08.191Z,100841.06
2023-04-09T07:21:35.024Z,100839.41
2023-04-09T07:24:01.617Z,100837.03
2023-04-09T07:26:28.262Z,100848.38
2023-04-09T07:28:55.040Z,100854.47
2023-04-09T07:31:22.067Z,100844.69
2023-04-09T07:33:48.871Z,100850.06
2023-04-09T07:36:15.618Z,100849.13
2023-04-09T07:38:42.394Z,100851.72
2023-04-09T07:41:11.321Z,100852.75
2023-04-09T07:43:37.943Z,100851.38
2023-04-09T07:46:04.649Z,100849.69
2023-04-09T07:48:31.312Z,100851.50
2023-04-09T07:50:57.972Z,100852.28
2023-04-09T07:53:24.965Z,100853.03
2023-04-09T07:55:51.853Z,100855.63
2023-04-09T07:58:18.526Z,100858.19
2023-04-09T08:00:45.278Z,100852.78
2023-04-09T08:03:12.084Z,100854.59
2023-04-09T08:05:38.988Z,100856.28
2023-04-09T08:08:05.869Z,100855.63
2023-04-09T08:10:32.536Z,100860.91
2023-04-09T08:12:59.174Z,100855.69
2023-04-09T08:15:25.851Z,100855.88
2023-04-09T08:17:52.612Z,100857.72
2023-04-09T08:20:19.501Z,100861.16
2023-04-09T08:22:47.857Z,100856.75
2023-04-09T08:25:14.521Z,100862.03
2023-04-09T08:27:41.171Z,100868.19
2023-04-09T08:30:08.624Z,100867.31
2023-04-09T08:32:35.241Z,100870.00
2023-04-09T08:35:01.919Z,100873.44
2023-04-09T08:37:28.577Z,100872.56
2023-04-09T08:39:55.259Z,100873.47
2023-04-09T08:42:22.776Z,100880.41
2023-04-09T08:44:50.554Z,100876.97
2023-04-09T08:47:18.511Z,100890.06
2023-04-09T08:49:45.228Z,100876.03
2023-04-09T08:52:12.169Z,100880.47
2023-04-09T08:54:38.822Z,100889.16
2023-04-09T08:57:06.177Z,100881.28
2023-04-09T08:59:32.918Z,100879.53
2023-04-09T09:02:12.549Z,100880.44
2023-04-09T09:04:47.336Z,100877.84
2023-04-09T09:07:14.486Z,100893.53
2023-04-09T09:09:58.378Z,100886.56
2023-04-09T09:12:35.857Z,100897.81
2023-04-09T09:15:02.997Z,100894.41
2023-04-09T09:17:29.912Z,100897.84
2023-04-09T09:19:56.590Z,100895.25
2023-04-09T09:22:24.238Z,100902.22
2023-04-09T09:24:52.539Z,100893.53
2023-04-09T09:27:32.194Z,100893.53
2023-04-09T09:29:59.620Z,100890.03
2023-04-09T09:32:26.582Z,100897.84
2023-04-09T09:35:05.130Z,100902.19
2023-04-09T09:37:32.471Z,100890.00
2023-04-09T09:39:59.859Z,100897.84
2023-04-09T09:42:26.678Z,100890.88
2023-04-09T09:44:54.160Z,100894.41
2023-04-09T09:47:22.613Z,100884.75
2023-04-09T09:49:49.622Z,100884.81
2023-04-09T09:52:19.473Z,100876.94
2023-04-09T09:54:52.086Z,100888.28
2023-04-09T09:57:20.001Z,100881.34
2023-04-09T09:59:54.185Z,100877.84
2023-04-09T10:02:23.588Z,100890.88
2023-04-09T10:04:51.087Z,100884.56
2023-04-09T10:07:17.997Z,100886.47
2023-04-09T10:09:49.747Z,100878.59
2023-04-09T10:12:19.487Z,100882.09
2023-04-09T10:14:46.766Z,100880.31
2023-04-09T10:17:13.546Z,100886.13
2023-04-09T10:19:46.600Z,100887.19
2023-04-09T10:22:18.486Z,100881.91
2023-04-09T10:24:46.542Z,100887.34
2023-04-09T10:27:17.371Z,100878.47
2023-04-09T10:29:46.446Z,100879.97
2023-04-09T10:32:19.069Z,100877.13
2023-04-09T10:34:45.738Z,100875.63
2023-04-09T10:37:20.469Z,100882.78
2023-04-09T10:39:48.763Z,100872.50
2023-04-09T10:42:39.440Z,100885.59
2023-04-09T10:45:13.553Z,100880.28
2023-04-09T10:47:42.372Z,100883.84
2023-04-09T10:50:15.969Z,100874.75
2023-04-09T10:52:43.028Z,100881.69
2023-04-09T10:55:10.409Z,100881.91
2023-04-09T10:57:37.241Z,100881.25
2023-04-09T11:00:04.218Z,100878.69
2023-04-09T11:02:45.347Z,100883.06
2023-04-09T11:05:35.972Z,100882.16
2023-04-09T11:08:09.627Z,100876.94
2023-04-09T11:10:41.619Z,100874.31
2023-04-09T11:13:14.981Z,100872.50
2023-04-09T11:15:42.176Z,100880.31
2023-04-09T11:18:09.023Z,100873.22
2023-04-09T11:20:36.388Z,100875.03
2023-04-09T11:23:03.602Z,100872.56
2023-04-09T11:25:32.283Z,100871.69
2023-04-09T11:27:59.778Z,100867.28
2023-04-09T11:30:26.448Z,100866.28
2023-04-09T11:32:53.222Z,100865.44
2023-04-09T11:35:22.246Z,100864.25
2023-04-09T11:37:50.013Z,100863.13
2023-04-09T11:40:18.855Z,100866.19
2023-04-09T11:42:48.248Z,100864.56
2023-04-09T11:45:16.074Z,100865.34
2023-04-09T11:47:44.141Z,100863.56
2023-04-09T11:50:12.481Z,100863.22
2023-04-09T11:52:39.944Z,100861.78
2023-04-09T11:55:06.997Z,100861.75
2023-04-09T11:57:40.903Z,100858.16
2023-04-09T12:00:12.976Z,100861.53
2023-04-09T12:02:50.304Z,100859.63
2023-04-09T12:05:29.855Z,100855.34
2023-04-09T12:08:07.456Z,100864.25
2023-04-09T12:10:37.837Z,100854.63
2023-04-09T12:13:09.504Z,100857.19
2023-04-09T12:15:37.908Z,100856.19
2023-04-09T12:18:08.718Z,100855.94
2023-04-09T12:20:42.586Z,100848.97
2023-04-09T12:23:12.770Z,100853.34
2023-04-09T12:25:44.442Z,100852.81
2023-04-09T12:28:15.850Z,100847.69
2023-04-09T12:30:42.774Z,100841.47
2023-04-09T12:33:10.926Z,100839.94
2023-04-09T12:35:38.736Z,100844.47
2023-04-09T12:38:05.825Z,100848.81
2023-04-09T12:40:32.513Z,100839.72
2023-04-09T12:42:59.321Z,100842.53
2023-04-09T12:45:25.951Z,100832.19
2023-04-09T12:47:52.716Z,100829.66
2023-04-09T12:50:19.582Z,100835.66
2023-04-09T12:52:46.798Z,100828.59
2023-04-09T12:55:14.794Z,100826.84
2023-04-09T12:57:44.593Z,100823.00
2023-04-09T13:00:13.516Z,100819.50
2023-04-09T13:02:40.345Z,100822.75
2023-04-09T13:05:07.340Z,100829.84
2023-04-09T13:07:34.017Z,100828.19
2023-04-09T13:10:00.775Z,100821.44
2023-04-09T13:12:27.483Z,100818.69
2023-04-09T13:14:54.864Z,100810.75
2023-04-09T13:17:22.388Z,100811.13
2023-04-09T13:19:50.373Z,100810.28
2023-04-09T13:22:17.682Z,100810.19
2023-04-09T13:24:44.322Z,100803.31
2023-04-09T13:27:10.976Z,100812.47
2023-04-09T13:29:37.783Z,100808.09
2023-04-09T13:32:04.572Z,100805.44
2023-04-09T13:34:31.197Z,100801.56
2023-04-09T13:36:57.852Z,100804.75
2023-04-09T13:39:24.554Z,100806.78
2023-04-09T13:41:51.238Z,100806.81
2023-04-09T13:44:18.093Z,100797.41
2023-04-09T13:46:44.685Z,100804.19
2023-04-09T13:49:11.419Z,100802.47
2023-04-09T13:51:38.181Z,100795.31
2023-04-09T13:54:06.023Z,100801.69
2023-04-09T13:56:32.862Z,100796.19
2023-04-09T13:58:59.510Z,100797.44
2023-04-09T14:01:26.161Z,100789.81
2023-04-09T14:03:53.267Z,100795.66
2023-04-09T14:06:20.166Z,100797.59
2023-04-09T14:08:46.787Z,100792.34
2023-04-09T14:11:13.721Z,100795.19
2023-04-09T14:13:40.782Z,100787.81
2023-04-09T14:16:08.623Z,100795.38
2023-04-09T14:18:35.313Z,100788.75
2023-04-09T14:21:02.090Z,100790.31
2023-04-09T14:23:28.740Z,100794.59
2023-04-09T14:25:55.368Z,100791.28
2023-04-09T14:28:22.079Z,100788.97
2023-04-09T14:30:49.015Z,100783.06
2023-04-09T14:33:15.681Z,100787.03
2023-04-09T14:35:42.507Z,100781.41
2023-04-09T14:38:09.302Z,100777.81
2023-04-09T14:40:36.676Z,100781.06
2023-04-09T14:43:03.451Z,100782.81
2023-04-09T14:45:30.808Z,100779.06
2023-04-09T14:47:57.824Z,100780.59
2023-04-09T14:50:24.640Z,100784.69
2023-04-09T14:52:51.339Z,100780.31
2023-04-09T14:55:18.252Z,100786.59
2023-04-09T14:57:44.906Z,100780.84
2023-04-09T15:00:12.598Z,100779.00
2023-04-09T15:02:39.786Z,100774.88
2023-04-09T15:05:07.379Z,100779.59
2023-04-09T15:07:34.224Z,100770.94
2023-04-09T15:10:00.900Z,100765.78
2023-04-09T15:12:29.057Z,100773.38
2023-04-09T15:14:56.249Z,100772.84
2023-04-09T15:17:23.706Z,100769.75
2023-04-09T15:19:50.450Z,100775.84
2023-04-09T15:22:17.059Z,100766.09
2023-04-09T15:24:43.724Z,100766.03
2023-04-09T15:27:10.439Z,100765.44
2023-04-09T15:29:37.078Z,100772.19
2023-04-09T15:32:03.873Z,100765.50
2023-04-09T15:34:30.505Z,100772.63
2023-04-09T15:36:57.122Z,100766.50
2023-04-09T15:39:24.007Z,100769.06
2023-04-09T15:41:50.742Z,100762.13
2023-04-09T15:44:17.464Z,100772.91
2023-04-09T15:46:44.136Z,100778.03
2023-04-09T15:49:10.789Z,100770.41
2023-04-09T15:51:37.492Z,100766.38
2023-04-09T15:54:04.109Z,100769.50
2023-04-09T15:56:30.782Z,100771.25
2023-04-09T15:58:59.673Z,100772.47
2023-04-09T16:01:26.348Z,100771.69
2023-04-09T16:03:53.032Z,100772.50
2023-04-09T16:06:19.763Z,100771.75
2023-04-09T16:08:46.379Z,100772.56
2023-04-09T16:11:13.059Z,100767.97
2023-04-09T16:13:39.783Z,100767.44
2023-04-09T16:16:06.907Z,100770.88
2023-04-09T16:18:34.498Z,100769.16
2023-04-09T16:21:01.252Z,100770.13
2023-04-09T16:23:30.315Z,100773.03
2023-04-09T16:25:57.412Z,100776.38
2023-04-09T16:28:24.161Z,100776.25
2023-04-09T16:30:50.853Z,100777.31
2023-04-09T16:33:17.524Z,100770.25
2023-04-09T16:35:44.522Z,100778.13
2023-04-09T16:38:11.331Z,100769.31
2023-04-09T16:40:38.056Z,100773.81
2023-04-09T16:43:04.948Z,100772.22
2023-04-09T16:45:31.641Z,100773.91
2023-04-09T16:47:58.582Z,100777.53
2023-04-09T16:50:25.352Z,100772.19
2023-04-09T16:52:51.976Z,100783.34
2023-04-09T16:55:18.767Z,100778.88
2023-04-09T16:57:45.407Z,100780.16
2023-04-09T17:00:13.197Z,100778.22
2023-04-09T17:02:39.862Z,100778.47
2023-04-09T17:05:07.070Z,100776.66
2023-04-09T17:07:33.693Z,100776.78
2023-04-09T17:10:00.345Z,100779.31
2023-04-09T17:12:26.988Z,100772.41
2023-04-09T17:14:53.645Z,100774.28
2023-04-09T17:17:20.630Z,100771.63
2023-04-09T17:19:47.252Z,100775.91
2023-04-09T17:22:13.951Z,100770.50
2023-04-09T17:24:40.666Z,100776.72
2023-04-09T17:27:07.395Z,100775.72
2023-04-09T17:29:34.433Z,100776.56
2023-04-09T17:32:01.147Z,100778.34
2023-04-09T17:34:27.948Z,100779.19
2023-04-09T17:36:54.564Z,100783.94
2023-04-09T17:39:21.269Z,100788.38
2023-04-09T17:41:47.957Z,100779.56
2023-04-09T17:44:14.653Z,100776.09
2023-04-09T17:46:41.297Z,100787.47
2023-04-09T17:49:08.089Z,100788.25
2023-04-09T17:51:37.522Z,100789.09
2023-04-09T17:54:04.239Z,100793.44
2023-04-09T17:56:30.881Z,100795.22
2023-04-09T17:58:57.549Z,100797.84
2023-04-09T18:01:24.230Z,100797.88
2023-04-09T18:03:51.166Z,100800.44
2023-04-09T18:06:18.072Z,100803.97
2023-04-09T18:08:44.725Z,100801.47
2023-04-09T18:11:13.146Z,100806.72
2023-04-09T18:13:40.421Z,100806.72
2023-04-09T18:16:10.975Z,100813.81
2023-04-09T18:18:38.264Z,100808.59
2023-04-09T18:21:05.318Z,100818.28
2023-04-09T18:23:32.263Z,100822.66
2023-04-09T18:25:58.964Z,100815.69
2023-04-09T18:28:25.699Z,100826.19
2023-04-09T18:30:52.333Z,100826.22
2023-04-09T18:33:19.390Z,100823.59
2023-04-09T18:35:46.003Z,100827.09
2023-04-09T18:38:12.740Z,100827.09
2023-04-09T18:40:45.568Z,100831.47
2023-04-09T18:43:12.178Z,100829.69
2023-04-09T18:45:39.178Z,100830.59
2023-04-09T18:48:05.918Z,100828.84
2023-04-09T18:50:34.763Z,100830.63
2023-04-09T18:53:04.468Z,100830.69
2023-04-09T18:55:32.034Z,100831.59
2023-04-09T18:57:58.682Z,100829.84
2023-04-09T19:00:25.321Z,100831.56
2023-04-09T19:02:52.218Z,100838.53
2023-04-09T19:05:19.082Z,100837.72
2023-04-09T19:07:45.804Z,100839.44
2023-04-09T19:10:13.408Z,100839.44
2023-04-09T19:12:40.015Z,100840.31
2023-04-09T19:15:07.173Z,100842.06
2023-04-09T19:17:33.809Z,100841.19
2023-04-09T19:20:00.575Z,100836.84
2023-04-09T19:22:27.189Z,100843.84
2023-04-09T19:24:53.819Z,100839.47
2023-04-09T19:27:20.535Z,100845.59
2023-04-09T19:29:47.204Z,100846.44
2023-04-09T19:32:13.894Z,100842.97
2023-04-09T19:34:40.693Z,100845.59
2023-04-09T19:37:07.352Z,100844.72
2023-04-09T19:39:34.027Z,100846.44
2023-04-09T19:42:00.790Z,100839.47
2023-04-09T19:44:27.476Z,100842.09
2023-04-09T19:46:54.279Z,100837.75
2023-04-09T19:49:20.969Z,100839.44
2023-04-09T19:51:49.219Z,100836.84
2023-04-09T19:54:15.928Z,100841.22
2023-04-09T19:56:42.575Z,100834.22
2023-04-09T19:59:09.212Z,100839.41
2023-04-09T20:01:35.909Z,100835.91
2023-04-09T20:04:02.980Z,100841.13
2023-04-09T20:06:29.840Z,100842.00
2023-04-09T20:08:56.578Z,100841.13
2023-04-09T20:11:23.211Z,100844.59
2023-04-09T20:13:49.896Z,100849.81
2023-04-09T20:16:16.624Z,100847.19
2023-04-09T20:18:43.353Z,100846.31
2023-04-09T20:21:09.953Z,100854.09
2023-04-09T20:23:36.661Z,100850.66
2023-04-09T20:26:03.507Z,100850.63
2023-04-09T20:28:30.154Z,100847.19
2023-04-09T20:30:56.780Z,100847.19
2023-04-09T20:33:23.401Z,100852.41
2023-04-09T20:35:50.046Z,100855.03
2023-04-09T20:38:16.691Z,100851.50
2023-04-09T20:40:43.333Z,100843.59
2023-04-09T20:43:10.003Z,100845.38
2023-04-09T20:45:36.761Z,100845.31
2023-04-09T20:48:03.796Z,100846.13
2023-04-09T20:50:30.840Z,100847.91
2023-04-09T20:52:58.541Z,100846.16
2023-04-09T20:55:25.604Z,100849.66
2023-04-09T20:57:56.192Z,100846.19
2023-04-09T21:00:22.946Z,100847.97
2023-04-09T21:02:49.966Z,100849.69
2023-04-09T21:05:23.433Z,100848.75
2023-04-09T21:07:52.807Z,100843.56
2023-04-09T21:10:20.012Z,100847.91
2023-04-09T21:12:46.732Z,100840.94
2023-04-09T21:15:13.352Z,100841.75
2023-04-09T21:17:40.050Z,100841.69
2023-04-09T21:20:07.268Z,100838.06
2023-04-09T21:22:34.738Z,100840.63
2023-04-09T21:25:01.464Z,100844.09
2023-04-09T21:27:28.090Z,100842.44
2023-04-09T21:29:54.972Z,100845.91
2023-04-09T21:32:21.733Z,100836.31
2023-04-09T21:34:48.392Z,100840.75
2023-04-09T21:37:15.220Z,100845.00
2023-04-09T21:39:41.838Z,100844.06
2023-04-09T21:42:08.509Z,100839.81
2023-04-09T21:44:35.127Z,100843.16
2023-04-09T21:47:01.862Z,100843.97
2023-04-09T21:49:28.619Z,100841.34
2023-04-09T21:51:55.377Z,100842.25
2023-04-09T21:54:22.061Z,100843.16
2023-04-09T21:56:48.693Z,100842.28
2023-04-09T21:59:15.413Z,100838.81
2023-04-09T22:01:42.097Z,100842.28
2023-04-09T22:04:08.939Z,100849.19
2023-04-09T22:06:35.737Z,100844.84
2023-04-09T22:09:02.818Z,100844.81
2023-04-09T22:11:29.681Z,100851.72
2023-04-09T22:13:57.679Z,100841.22
2023-04-09T22:16:24.977Z,100850.78
2023-04-09T22:18:52.945Z,100853.31
2023-04-09T22:21:19.823Z,100848.91
2023-04-09T22:23:46.531Z,100851.47
2023-04-09T22:26:13.158Z,100846.28
2023-04-09T22:28:39.863Z,100855.03
2023-04-09T22:31:06.797Z,100853.31
2023-04-09T22:33:33.481Z,100854.00
2023-04-09T22:36:00.287Z,100850.59
2023-04-09T22:38:26.971Z,100849.75
2023-04-09T22:40:53.871Z,100848.78
2023-04-09T22:43:20.571Z,100848.78
2023-04-09T22:45:54.670Z,100843.50
2023-04-09T22:48:22.507Z,100851.25
2023-04-09T22:50:50.285Z,100850.31
2023-04-09T22:53:17.725Z,100847.84
2023-04-09T22:55:47.773Z,100849.63
2023-04-09T22:58:14.801Z,100846.97
2023-04-09T23:00:41.647Z,100852.25
2023-04-09T23:03:09.047Z,100850.47
2023-04-09T23:05:36.176Z,100844.41
2023-04-09T23:08:02.833Z,100853.94
2023-04-09T23:10:29.650Z,100849.53
2023-04-09T23:12:56.823Z,100845.13
2023-04-09T23:15:23.445Z,100844.41
2023-04-09T23:17:53.225Z,100846.75
2023-04-09T23:20:20.002Z,100849.28
2023-04-09T23:22:47.401Z,100851.88
2023-04-09T23:25:14.950Z,100843.19
2023-04-09T23:27:41.614Z,100841.53
2023-04-09T23:30:08.699Z,100839.75
2023-04-09T23:32:35.718Z,100848.28
2023-04-09T23:35:02.788Z,100854.97
2023-04-09T23:37:29.588Z,100841.88
2023-04-09T23:39:56.264Z,100847.91
2023-04-09T23:42:22.871Z,100845.16
2023-04-09T23:44:49.519Z,100845.03
2023-04-09T23:47:16.172Z,100843.28
2023-04-09T23:49:42.950Z,100844.22
2023-04-09T23:52:09.655Z,100844.38
2023-04-09T23:54:36.396Z,100838.34
2023-04-09T23:57:03.142Z,100834.97
2023-04-09T23:59:29.821Z,100840.97
